Time;durP1;ratioP1;P1;durP2;ratioP2;P2;SDS_P1;SDS_P2;PMS_P1;PMS_P2;Temp;Humidity;BMP_temperature;BMP_pressure;BME280_temperature;BME280_humidity;BME280_pressure;Samples;Min_cycle;Max_cycle;Signal;HPM_P1;HPM_P2
2021/01/22 00:01:47;;;;;;;1.60;1.13;;;9.50;99.90;;;;;;5023649;28;20276;-78
2021/01/22 00:04:13;;;;;;;1.13;1.00;;;9.60;99.90;;;;;;5014933;28;20197;-78
2021/01/22 00:06:38;;;;;;;2.20;1.20;;;9.60;99.90;;;;;;5016275;28;20194;-78
2021/01/22 00:09:04;;;;;;;4.00;1.57;;;9.60;99.90;;;;;;5036529;28;20228;-77
2021/01/22 00:11:30;;;;;;;6.07;1.42;;;9.60;99.90;;;;;;5010123;28;20233;-77
2021/01/22 00:13:56;;;;;;;4.53;1.53;;;9.60;99.90;;;;;;5017485;28;20217;-77
2021/01/22 00:16:21;;;;;;;5.77;1.33;;;9.70;99.90;;;;;;4996962;28;20460;-78
2021/01/22 00:18:47;;;;;;;4.30;2.37;;;9.70;99.90;;;;;;4998889;28;20202;-79
2021/01/22 00:21:13;;;;;;;3.03;1.33;;;9.70;99.90;;;;;;5031961;28;20255;-78
2021/01/22 00:23:39;;;;;;;3.83;1.33;;;9.60;99.90;;;;;;5031583;28;20791;-78
2021/01/22 00:26:05;;;;;;;3.20;2.50;;;9.60;99.90;;;;;;5017338;28;20194;-78
2021/01/22 00:28:31;;;;;;;3.10;1.20;;;9.60;99.90;;;;;;5021027;28;20477;-78
2021/01/22 00:30:58;;;;;;;3.70;1.13;;;9.60;99.90;;;;;;5020822;28;20212;-78
2021/01/22 00:33:23;;;;;;;3.70;0.80;;;9.60;99.90;;;;;;5011469;28;20687;-78
2021/01/22 00:35:50;;;;;;;9.27;1.10;;;9.50;99.90;;;;;;5013923;28;20209;-77
2021/01/22 00:38:15;;;;;;;2.75;1.05;;;9.60;99.90;;;;;;5022251;28;20205;-77
2021/01/22 00:40:41;;;;;;;2.23;1.17;;;9.60;99.90;;;;;;5035457;28;20214;-77
2021/01/22 00:43:07;;;;;;;4.13;1.00;;;9.60;99.90;;;;;;5003521;28;20218;-77
2021/01/22 00:45:32;;;;;;;3.73;0.80;;;9.50;99.90;;;;;;5032221;28;20200;-77
2021/01/22 00:47:58;;;;;;;5.33;1.10;;;9.50;99.90;;;;;;5016834;28;20710;-78
2021/01/22 00:50:24;;;;;;;3.20;0.90;;;9.50;99.90;;;;;;5021532;28;20280;-78
2021/01/22 00:52:50;;;;;;;2.60;0.90;;;9.50;99.90;;;;;;5031889;28;20714;-78
2021/01/22 00:55:16;;;;;;;2.03;0.82;;;9.40;99.90;;;;;;5018242;28;20221;-78
2021/01/22 00:57:42;;;;;;;5.90;1.60;;;9.50;99.90;;;;;;5014625;28;20265;-78
2021/01/22 01:00:11;;;;;;;4.30;1.20;;;9.50;99.90;;;;;;5016606;28;20200;-79
2021/01/22 01:02:37;;;;;;;1.70;0.75;;;9.40;99.90;;;;;;5034096;28;20303;-78
2021/01/22 01:05:04;;;;;;;3.10;1.35;;;9.40;99.90;;;;;;5036014;28;20604;-79
2021/01/22 01:07:30;;;;;;;8.00;1.60;;;9.40;99.90;;;;;;5024911;28;20233;-79
2021/01/22 01:09:56;;;;;;;3.50;0.80;;;9.40;99.90;;;;;;5028677;28;20659;-79
2021/01/22 01:12:22;;;;;;;3.67;1.00;;;9.40;99.90;;;;;;5035755;28;20201;-79
2021/01/22 01:14:47;;;;;;;3.90;1.07;;;9.40;99.90;;;;;;5016033;28;20221;-78
2021/01/22 01:17:13;;;;;;;1.37;0.40;;;9.50;99.90;;;;;;5022629;28;20220;-77
2021/01/22 01:19:39;;;;;;;3.87;1.13;;;9.50;99.90;;;;;;5027303;28;20208;-78
2021/01/22 01:22:04;;;;;;;1.70;1.20;;;9.50;99.90;;;;;;5012316;28;20278;-77
2021/01/22 01:24:30;;;;;;;2.40;0.80;;;9.40;99.90;;;;;;5035912;28;20251;-77
2021/01/22 01:26:56;;;;;;;1.87;0.70;;;9.50;99.90;;;;;;4998401;28;20198;-79
2021/01/22 01:29:21;;;;;;;2.10;0.90;;;9.50;99.90;;;;;;5016624;28;20161;-80
2021/01/22 01:31:47;;;;;;;2.13;0.60;;;9.50;99.90;;;;;;5015845;28;20655;-78
2021/01/22 01:34:13;;;;;;;3.40;2.20;;;9.50;99.90;;;;;;5016545;28;20221;-80
2021/01/22 01:36:38;;;;;;;4.30;1.13;;;9.50;99.90;;;;;;5005882;28;20193;-80
2021/01/22 01:39:05;;;;;;;2.10;0.93;;;9.50;99.90;;;;;;5016227;28;20177;-80
2021/01/22 01:41:30;;;;;;;1.58;0.60;;;9.50;99.90;;;;;;5023230;28;20601;-79
2021/01/22 01:43:56;;;;;;;1.00;0.70;;;9.40;99.90;;;;;;5032925;28;20205;-79
2021/01/22 01:46:36;;;;;;;2.23;0.80;;;9.40;99.90;;;;;;5041639;28;20260;-80
2021/01/22 01:49:19;;;;;;;0.90;0.50;;;9.40;99.90;;;;;;4961991;29;20200;-81
2021/01/22 01:51:45;;;;;;;2.00;0.50;;;9.10;99.90;;;;;;5005724;28;20563;-80
2021/01/22 01:54:11;;;;;;;1.30;0.80;;;8.80;99.90;;;;;;5012794;28;20424;-81
2021/01/22 01:56:38;;;;;;;0.67;0.40;;;8.70;99.90;;;;;;5021575;28;20261;-81
2021/01/22 01:59:04;;;;;;;0.68;0.40;;;8.50;99.90;;;;;;5025270;28;20473;-81
2021/01/22 02:01:37;;;;;;;1.80;0.63;;;8.30;99.90;;;;;;5007870;28;20190;-81
2021/01/22 02:12:01;;;;;;;1.00;0.85;;;7.60;99.90;;;;;;4645928;26;20216;-82
2021/01/22 02:14:58;;;;;;;0.88;0.73;;;7.50;99.90;;;;;;5039654;28;20189;-82
2021/01/22 02:51:25;;;;;;;2.35;2.08;;;6.20;99.90;;;;;;5166588;23;20224;-82
2021/01/22 02:57:30;;;;;;;2.17;2.00;;;6.00;99.90;;;;;;5022050;28;20352;-82
2021/01/22 03:00:38;;;;;;;1.83;1.60;;;6.00;99.90;;;;;;5002168;28;20298;-81
2021/01/22 03:14:25;;;;;;;2.35;1.80;;;6.00;99.90;;;;;;5762957;23;20248;-81
2021/01/22 03:16:51;;;;;;;1.70;1.60;;;6.00;99.90;;;;;;5011150;28;20214;-81
2021/01/22 03:19:17;;;;;;;2.17;1.95;;;6.00;99.90;;;;;;5014556;28;20255;-82
2021/01/22 03:21:43;;;;;;;1.65;1.55;;;6.00;99.90;;;;;;5014313;28;20301;-80
2021/01/22 03:24:09;;;;;;;1.80;1.70;;;6.00;99.90;;;;;;5014502;28;20186;-81
2021/01/22 03:26:34;;;;;;;1.90;1.80;;;6.00;99.90;;;;;;5014125;28;20507;-80
2021/01/22 03:29:00;;;;;;;1.63;1.53;;;6.00;99.90;;;;;;5017296;28;20488;-80
2021/01/22 03:31:26;;;;;;;1.97;1.77;;;6.00;99.90;;;;;;5014411;28;20906;-81
2021/01/22 03:33:51;;;;;;;2.70;1.80;;;5.90;99.90;;;;;;4994910;28;20750;-80
2021/01/22 03:36:17;;;;;;;2.13;1.93;;;5.90;99.90;;;;;;5012147;28;20233;-80
2021/01/22 03:38:43;;;;;;;2.20;2.00;;;5.90;99.90;;;;;;5012234;28;20718;-80
2021/01/22 03:41:09;;;;;;;2.30;2.10;;;6.00;99.90;;;;;;5012335;28;20181;-79
2021/01/22 03:43:35;;;;;;;2.43;2.23;;;5.90;99.90;;;;;;5012548;28;20213;-81
2021/01/22 03:46:01;;;;;;;3.20;2.60;;;5.80;99.90;;;;;;5014662;28;20208;-81
2021/01/22 03:48:27;;;;;;;3.22;3.00;;;5.80;99.90;;;;;;4996376;28;20625;-81
2021/01/22 03:50:53;;;;;;;3.10;2.90;;;5.80;99.90;;;;;;4996608;28;20232;-81
2021/01/22 03:53:18;;;;;;;3.37;1.90;;;5.90;99.90;;;;;;5013383;28;20226;-81
2021/01/22 06:57:02;;;;;;;1.60;1.20;;;5.70;99.90;;;;;;5427969;23;20688;-78
2021/01/22 06:59:32;;;;;;;2.38;1.20;;;5.70;99.90;;;;;;4974592;28;20569;-78
2021/01/22 07:01:58;;;;;;;1.08;0.93;;;5.60;99.90;;;;;;4972869;28;20191;-78
2021/01/22 07:04:32;;;;;;;1.40;1.30;;;5.60;99.90;;;;;;4973300;28;20192;-78
2021/01/22 07:07:10;;;;;;;1.50;1.40;;;5.60;99.90;;;;;;4972847;28;20680;-78
2021/01/22 07:10:02;;;;;;;3.72;1.60;;;5.60;99.90;;;;;;4973020;28;20266;-80
2021/01/22 07:12:39;;;;;;;4.70;1.70;;;5.50;99.90;;;;;;4955079;28;20215;-78
2021/01/22 07:15:20;;;;;;;3.53;1.60;;;5.60;99.90;;;;;;4972861;28;20547;-78
2021/01/22 07:17:49;;;;;;;1.70;1.55;;;5.70;99.90;;;;;;4972109;28;20230;-78
2021/01/22 07:20:14;;;;;;;2.30;1.98;;;5.60;99.90;;;;;;4955303;28;20622;-78
2021/01/22 07:22:59;;;;;;;3.37;1.80;;;5.50;99.90;;;;;;4971634;28;20238;-78
2021/01/22 07:25:41;;;;;;;3.05;1.50;;;5.60;99.90;;;;;;4971840;28;20187;-78
2021/01/22 07:28:16;;;;;;;2.70;1.92;;;5.60;99.90;;;;;;4971770;28;20211;-78
2021/01/22 07:30:43;;;;;;;4.45;1.77;;;5.50;99.90;;;;;;4975272;28;20183;-80
2021/01/22 07:33:38;;;;;;;3.15;1.60;;;5.50;99.90;;;;;;4974643;28;20214;-80
2021/01/22 07:36:05;;;;;;;4.05;1.70;;;5.50;99.90;;;;;;4968363;28;20215;-80
2021/01/22 07:38:32;;;;;;;3.38;1.88;;;5.60;99.90;;;;;;4973466;28;20215;-78
2021/01/22 07:40:58;;;;;;;4.22;1.75;;;5.60;99.90;;;;;;4973157;28;20199;-79
2021/01/22 07:43:24;;;;;;;2.93;1.93;;;5.60;99.90;;;;;;4970521;28;20261;-78
2021/01/22 07:46:02;;;;;;;3.40;1.90;;;5.60;99.90;;;;;;4971854;28;20254;-78
2021/01/22 07:48:28;;;;;;;2.58;1.88;;;5.60;99.90;;;;;;4972392;28;20207;-80
2021/01/22 07:50:54;;;;;;;4.65;1.75;;;5.60;99.90;;;;;;4974462;28;20689;-80
2021/01/22 07:53:20;;;;;;;3.27;1.90;;;5.70;99.90;;;;;;4956819;28;20243;-80
2021/01/22 07:55:52;;;;;;;2.20;1.83;;;5.70;99.90;;;;;;4974356;28;20225;-80
2021/01/22 07:58:18;;;;;;;2.38;1.90;;;5.70;99.90;;;;;;4955979;28;20298;-80
2021/01/22 08:00:44;;;;;;;4.23;2.43;;;5.70;99.90;;;;;;4974405;28;20720;-80
2021/01/22 08:03:13;;;;;;;3.13;2.30;;;5.70;99.90;;;;;;4974351;28;20693;-80
2021/01/22 08:05:40;;;;;;;5.78;1.98;;;5.60;99.90;;;;;;4974504;28;20187;-80
2021/01/22 08:08:25;;;;;;;5.00;2.10;;;5.60;99.90;;;;;;4973989;28;20203;-80
2021/01/22 08:10:51;;;;;;;4.40;1.85;;;5.60;99.90;;;;;;4974114;28;20285;-80
2021/01/22 08:13:17;;;;;;;2.10;1.40;;;5.60;99.90;;;;;;4956571;28;20302;-80
2021/01/22 08:15:44;;;;;;;6.50;2.17;;;5.60;99.90;;;;;;4974412;28;20191;-80
2021/01/22 08:18:13;;;;;;;2.92;1.60;;;5.60;99.90;;;;;;4973744;28;20242;-80
2021/01/22 08:20:48;;;;;;;3.60;2.08;;;5.50;99.90;;;;;;4972283;28;20519;-78
2021/01/22 08:23:14;;;;;;;3.00;1.90;;;5.50;99.90;;;;;;4971594;28;20272;-78
2021/01/22 08:25:40;;;;;;;2.77;1.70;;;5.60;99.90;;;;;;4971278;28;20194;-78
2021/01/22 08:28:08;;;;;;;3.87;1.70;;;5.60;99.90;;;;;;4971311;28;20211;-78
2021/01/22 08:30:35;;;;;;;4.10;1.80;;;5.60;99.90;;;;;;4954464;28;20195;-78
2021/01/22 08:33:01;;;;;;;4.82;2.00;;;5.60;99.90;;;;;;4963467;28;20218;-78
2021/01/22 08:35:29;;;;;;;2.53;1.30;;;5.60;99.90;;;;;;4971473;28;20650;-78
2021/01/22 08:37:57;;;;;;;2.63;1.60;;;5.60;99.90;;;;;;4970816;28;20229;-78
2021/01/22 08:40:47;;;;;;;6.53;1.90;;;5.60;99.90;;;;;;4973631;28;20194;-79
2021/01/22 08:43:13;;;;;;;2.22;2.03;;;5.60;99.90;;;;;;4973629;28;20281;-80
2021/01/22 08:45:41;;;;;;;2.17;1.70;;;5.60;99.90;;;;;;4973888;28;20188;-79
2021/01/22 08:48:07;;;;;;;4.05;1.75;;;5.60;99.90;;;;;;4973282;28;20478;-80
2021/01/22 08:50:33;;;;;;;3.38;2.00;;;5.60;99.90;;;;;;4972156;28;20677;-78
2021/01/22 08:53:08;;;;;;;5.93;2.10;;;5.60;99.90;;;;;;4970588;28;20573;-78
2021/01/22 08:55:34;;;;;;;3.00;1.85;;;5.70;99.90;;;;;;4971759;28;20198;-77
2021/01/22 08:58:10;;;;;;;2.53;1.70;;;5.70;99.90;;;;;;4970892;28;20350;-78
2021/01/22 09:00:37;;;;;;;2.95;2.10;;;5.70;99.90;;;;;;4974047;28;20778;-79
2021/01/22 09:03:16;;;;;;;1.60;1.48;;;5.70;99.90;;;;;;4973561;28;20262;-79
2021/01/22 09:05:52;;;;;;;3.55;1.45;;;5.70;99.90;;;;;;4973734;28;20199;-79
2021/01/22 09:08:20;;;;;;;4.05;1.73;;;5.70;99.90;;;;;;4973523;28;20202;-79
2021/01/22 09:10:46;;;;;;;3.40;1.80;;;5.70;99.90;;;;;;4975103;28;20191;-79
2021/01/22 09:13:17;;;;;;;7.05;1.98;;;5.80;99.90;;;;;;4977147;28;20301;-79
2021/01/22 09:15:44;;;;;;;3.05;2.03;;;5.80;99.90;;;;;;4977411;28;20183;-79
2021/01/22 09:18:17;;;;;;;2.10;1.85;;;5.80;99.90;;;;;;4976767;28;20223;-79
2021/01/22 09:20:44;;;;;;;1.95;1.60;;;5.90;99.90;;;;;;4977731;28;20183;-79
2021/01/22 09:23:10;;;;;;;1.80;1.65;;;5.80;99.90;;;;;;4976730;28;20294;-79
2021/01/22 09:25:36;;;;;;;2.47;1.83;;;5.90;99.90;;;;;;4977075;28;20199;-80
2021/01/22 09:28:02;;;;;;;7.30;2.83;;;5.90;99.90;;;;;;4959395;28;20214;-80
2021/01/22 09:30:28;;;;;;;2.70;1.57;;;5.90;99.90;;;;;;4977103;28;20264;-80
2021/01/22 09:32:58;;;;;;;1.73;1.33;;;6.00;99.90;;;;;;4976669;28;20211;-79
2021/01/22 09:35:26;;;;;;;2.63;1.50;;;6.00;99.90;;;;;;4976946;28;20238;-80
2021/01/22 09:37:52;;;;;;;4.78;1.50;;;5.90;99.90;;;;;;4976492;28;20306;-79
2021/01/22 09:40:20;;;;;;;2.63;1.40;;;6.00;99.90;;;;;;4976066;28;20254;-78
2021/01/22 09:42:46;;;;;;;2.80;1.25;;;5.90;99.90;;;;;;4973801;28;20246;-78
2021/01/22 09:45:13;;;;;;;4.30;1.30;;;6.00;99.90;;;;;;4974028;28;20703;-78
2021/01/22 09:47:39;;;;;;;1.65;1.30;;;5.90;99.90;;;;;;4974378;28;20689;-78
2021/01/22 09:50:07;;;;;;;2.50;1.50;;;6.00;99.90;;;;;;4974056;28;20195;-78
2021/01/22 09:52:36;;;;;;;2.25;1.45;;;6.00;99.90;;;;;;4974042;28;20476;-78
2021/01/22 09:55:02;;;;;;;3.15;1.35;;;6.10;99.90;;;;;;4957188;28;20677;-78
2021/01/22 09:57:28;;;;;;;2.50;1.50;;;6.10;99.90;;;;;;4973797;28;20219;-78
2021/01/22 09:59:55;;;;;;;1.40;1.00;;;6.20;99.90;;;;;;4974366;28;20176;-77
2021/01/22 10:02:21;;;;;;;2.00;1.50;;;6.20;99.90;;;;;;4973669;28;20297;-78
2021/01/22 10:04:47;;;;;;;1.67;1.57;;;6.30;99.90;;;;;;4956614;28;20619;-78
2021/01/22 10:07:13;;;;;;;2.95;1.23;;;6.40;99.90;;;;;;4973638;28;20214;-78
2021/01/22 10:09:38;;;;;;;6.07;1.93;;;6.50;99.90;;;;;;4973815;28;20171;-78
2021/01/22 10:12:07;;;;;;;3.80;1.37;;;6.50;99.90;;;;;;4973569;28;20214;-77
2021/01/22 10:14:33;;;;;;;4.10;1.60;;;6.60;99.90;;;;;;4973912;28;20192;-78
2021/01/22 10:16:58;;;;;;;3.25;1.55;;;6.60;99.90;;;;;;4955981;28;20867;-77
2021/01/22 10:19:24;;;;;;;4.27;1.83;;;6.60;99.90;;;;;;4956989;28;20233;-79
2021/01/22 10:21:50;;;;;;;2.47;1.53;;;6.60;99.90;;;;;;4973064;28;20195;-77
2021/01/22 10:24:16;;;;;;;3.37;1.27;;;6.60;99.90;;;;;;4975060;28;20187;-78
2021/01/22 10:26:45;;;;;;;2.10;1.30;;;6.60;99.90;;;;;;4975037;28;20202;-78
2021/01/22 10:29:11;;;;;;;1.60;1.45;;;6.60;99.90;;;;;;4975559;28;20164;-77
2021/01/22 10:31:37;;;;;;;5.70;1.60;;;6.60;99.90;;;;;;4958169;28;20209;-78
2021/01/22 10:34:03;;;;;;;2.40;1.20;;;6.70;99.90;;;;;;4974987;28;20301;-78
2021/01/22 10:36:28;;;;;;;3.20;1.40;;;6.60;99.90;;;;;;4975139;28;20253;-78
2021/01/22 10:38:55;;;;;;;3.73;1.17;;;6.60;99.90;;;;;;4974740;28;20538;-78
2021/01/22 10:41:21;;;;;;;1.75;1.63;;;6.70;99.90;;;;;;4974275;28;20544;-77
2021/01/22 10:43:47;;;;;;;5.25;2.20;;;6.70;99.90;;;;;;4973862;28;20270;-77
2021/01/22 10:46:12;;;;;;;2.37;1.80;;;6.70;99.90;;;;;;4974661;28;20203;-78
2021/01/22 10:48:38;;;;;;;1.67;1.47;;;6.70;99.90;;;;;;4972954;28;20804;-77
2021/01/22 10:51:05;;;;;;;3.40;2.07;;;6.80;99.90;;;;;;4974033;28;20214;-77
2021/01/22 10:53:33;;;;;;;3.70;2.00;;;6.80;99.90;;;;;;4973450;28;20207;-77
2021/01/22 10:55:59;;;;;;;4.50;2.33;;;6.80;99.90;;;;;;4974243;28;20238;-78
2021/01/22 10:58:25;;;;;;;2.40;2.20;;;6.80;99.90;;;;;;4956363;28;20235;-77
2021/01/22 11:00:54;;;;;;;2.30;2.10;;;6.90;99.90;;;;;;4956386;28;21012;-77
2021/01/22 11:03:21;;;;;;;2.90;2.35;;;7.00;99.90;;;;;;4973785;28;20219;-77
2021/01/22 11:05:47;;;;;;;2.40;2.20;;;7.00;99.90;;;;;;4956342;28;20673;-77
2021/01/22 11:08:12;;;;;;;4.77;2.17;;;7.00;99.90;;;;;;4973478;28;20215;-77
2021/01/22 11:10:39;;;;;;;3.07;1.80;;;7.10;99.90;;;;;;4973932;28;20968;-78
2021/01/22 11:13:05;;;;;;;2.13;1.70;;;7.00;99.90;;;;;;4972975;28;20223;-78
2021/01/22 11:15:33;;;;;;;5.83;2.40;;;7.10;99.90;;;;;;4973975;28;20744;-78
2021/01/22 11:17:58;;;;;;;3.88;2.22;;;7.00;99.90;;;;;;4973954;28;20474;-77
2021/01/22 11:20:24;;;;;;;3.40;1.63;;;7.00;99.90;;;;;;4974700;28;20190;-77
2021/01/22 11:22:50;;;;;;;2.30;2.03;;;7.00;99.90;;;;;;4974399;28;20226;-78
2021/01/22 11:25:17;;;;;;;4.50;2.10;;;7.00;99.90;;;;;;4974268;28;20202;-77
2021/01/22 11:27:43;;;;;;;2.67;1.77;;;7.00;99.90;;;;;;4973616;28;20585;-77
2021/01/22 11:30:10;;;;;;;2.47;1.88;;;7.00;99.90;;;;;;4957667;28;20742;-77
2021/01/22 11:32:36;;;;;;;4.72;2.60;;;7.00;99.90;;;;;;4974340;28;20211;-77
2021/01/22 11:35:03;;;;;;;3.83;1.50;;;7.10;99.90;;;;;;4974799;28;20285;-77
2021/01/22 11:37:29;;;;;;;3.08;1.80;;;7.10;99.90;;;;;;4972477;28;20218;-78
2021/01/22 11:39:56;;;;;;;2.53;2.33;;;7.00;99.90;;;;;;4974511;28;20222;-78
2021/01/22 11:42:22;;;;;;;2.28;1.95;;;7.00;99.90;;;;;;4956560;28;20302;-78
2021/01/22 11:44:48;;;;;;;2.50;1.80;;;7.00;99.90;;;;;;4974269;28;20270;-78
2021/01/22 11:47:14;;;;;;;3.00;1.60;;;7.00;99.90;;;;;;4973235;28;20250;-80
2021/01/22 11:49:40;;;;;;;3.08;2.10;;;7.00;99.90;;;;;;4973655;28;20472;-77
2021/01/22 11:52:06;;;;;;;5.22;1.70;;;7.00;99.90;;;;;;4957477;28;20215;-77
2021/01/22 11:54:33;;;;;;;6.20;2.53;;;7.00;99.90;;;;;;4974266;28;20246;-77
2021/01/22 11:56:59;;;;;;;2.85;2.00;;;7.00;99.90;;;;;;4974848;28;20672;-77
2021/01/22 11:59:25;;;;;;;7.10;1.90;;;7.10;99.90;;;;;;4975038;28;20191;-77
2021/01/22 12:01:50;;;;;;;2.87;1.70;;;7.10;99.90;;;;;;4975613;28;20447;-77
2021/01/22 12:04:16;;;;;;;2.90;2.30;;;7.10;99.90;;;;;;4975032;28;20241;-77
2021/01/22 12:06:42;;;;;;;2.97;1.90;;;7.10;99.90;;;;;;4955832;28;20285;-78
2021/01/22 12:09:07;;;;;;;2.40;2.20;;;7.10;99.90;;;;;;4973190;28;20187;-78
2021/01/22 12:11:34;;;;;;;7.17;2.13;;;7.10;99.90;;;;;;4975133;28;20171;-77
2021/01/22 12:14:00;;;;;;;3.17;2.15;;;7.10;99.90;;;;;;4957177;28;20565;-77
2021/01/22 12:16:26;;;;;;;6.00;2.40;;;7.00;99.90;;;;;;4957612;28;20222;-77
2021/01/22 12:18:52;;;;;;;2.88;2.00;;;7.10;99.90;;;;;;4974494;28;20466;-77
2021/01/22 12:21:18;;;;;;;3.40;1.60;;;7.10;99.90;;;;;;4974469;28;20170;-77
2021/01/22 12:23:44;;;;;;;4.30;2.33;;;7.10;99.90;;;;;;4956599;28;20215;-77
2021/01/22 12:26:11;;;;;;;4.13;2.00;;;7.10;99.90;;;;;;4974323;28;20179;-77
2021/01/22 12:28:38;;;;;;;3.20;2.50;;;7.10;99.90;;;;;;4974856;28;20210;-77
2021/01/22 12:31:04;;;;;;;4.40;2.70;;;7.20;99.90;;;;;;4974393;28;20171;-77
2021/01/22 12:33:31;;;;;;;5.03;2.50;;;7.30;99.90;;;;;;4973881;28;20678;-77
2021/01/22 12:35:57;;;;;;;6.00;2.75;;;7.30;99.90;;;;;;4974576;28;20646;-77
2021/01/22 12:38:23;;;;;;;2.43;2.10;;;7.30;99.90;;;;;;4974654;28;20233;-77
2021/01/22 12:40:48;;;;;;;3.42;2.50;;;7.30;99.90;;;;;;4974908;28;20434;-78
2021/01/22 12:43:14;;;;;;;2.33;2.13;;;7.40;99.90;;;;;;4974120;28;20755;-77
2021/01/22 12:45:40;;;;;;;3.00;2.23;;;7.40;99.90;;;;;;4979530;28;20194;-77
2021/01/22 12:48:06;;;;;;;4.30;2.53;;;7.40;99.90;;;;;;4980736;28;20234;-77
2021/01/22 12:50:32;;;;;;;4.67;2.40;;;7.30;99.90;;;;;;4981416;28;20206;-78
2021/01/22 12:52:58;;;;;;;3.70;1.98;;;7.30;99.90;;;;;;4980918;28;20458;-77
2021/01/22 12:55:27;;;;;;;7.80;2.50;;;7.30;99.90;;;;;;4981098;28;20269;-78
2021/01/22 12:57:53;;;;;;;5.93;2.00;;;7.30;99.90;;;;;;4962764;28;20259;-78
2021/01/22 13:00:22;;;;;;;5.63;2.80;;;7.30;99.90;;;;;;4981326;28;20235;-77
2021/01/22 13:02:47;;;;;;;2.97;2.67;;;7.30;99.90;;;;;;4963178;28;20454;-78
2021/01/22 13:05:14;;;;;;;3.63;2.47;;;7.30;99.90;;;;;;4981700;28;20290;-77
2021/01/22 13:07:41;;;;;;;4.75;2.40;;;7.30;99.90;;;;;;4969169;28;20242;-78
2021/01/22 13:10:08;;;;;;;9.77;2.40;;;7.40;99.90;;;;;;4979568;28;20202;-78
2021/01/22 13:12:34;;;;;;;5.90;2.78;;;7.40;99.90;;;;;;4963365;28;20211;-77
2021/01/22 13:15:00;;;;;;;4.67;2.20;;;7.30;99.90;;;;;;4983357;28;20590;-77
2021/01/22 13:17:26;;;;;;;5.33;2.43;;;7.30;99.90;;;;;;4981234;28;20604;-78
2021/01/22 13:19:52;;;;;;;4.85;3.13;;;7.20;99.90;;;;;;4983113;28;20453;-77
2021/01/22 13:22:18;;;;;;;8.30;3.40;;;7.30;99.90;;;;;;4980715;28;20219;-77
2021/01/22 13:24:43;;;;;;;7.60;2.90;;;7.40;99.90;;;;;;4982313;28;20884;-78
2021/01/22 13:27:09;;;;;;;5.47;2.87;;;7.40;99.90;;;;;;4978941;28;20218;-78
2021/01/22 13:29:35;;;;;;;12.07;3.40;;;7.40;99.90;;;;;;4979595;28;20231;-79
2021/01/22 13:32:00;;;;;;;4.30;2.73;;;7.30;99.90;;;;;;4979808;28;20215;-78
2021/01/22 13:34:26;;;;;;;5.40;2.73;;;7.30;99.90;;;;;;4979197;28;20191;-78
2021/01/22 13:36:52;;;;;;;9.30;2.57;;;7.40;99.50;;;;;;4981715;28;20574;-77
2021/01/22 13:39:17;;;;;;;2.63;2.33;;;7.30;99.90;;;;;;4983384;28;20222;-77
2021/01/22 13:41:43;;;;;;;3.67;2.40;;;7.40;99.80;;;;;;4963438;28;20175;-77
2021/01/22 13:44:09;;;;;;;4.50;2.25;;;7.30;99.90;;;;;;4979502;28;20234;-79
2021/01/22 13:46:35;;;;;;;3.63;2.47;;;7.30;99.90;;;;;;4979323;28;20199;-78
2021/01/22 13:49:01;;;;;;;3.57;2.67;;;7.30;99.90;;;;;;4978603;28;20210;-78
2021/01/22 13:51:26;;;;;;;6.37;3.40;;;7.30;99.40;;;;;;4979401;28;20171;-78
2021/01/22 13:53:52;;;;;;;3.73;2.57;;;7.20;99.50;;;;;;4980232;28;20225;-77
2021/01/22 13:56:21;;;;;;;4.40;2.47;;;7.20;97.70;;;;;;4980811;28;20199;-77
2021/01/22 13:58:50;;;;;;;4.15;3.10;;;7.20;97.70;;;;;;4978283;28;20207;-77
2021/01/22 14:01:16;;;;;;;5.85;3.10;;;7.10;98.40;;;;;;4978843;28;20172;-77
2021/01/22 14:03:42;;;;;;;2.95;2.70;;;7.00;97.60;;;;;;4976989;28;20221;-77
2021/01/22 14:06:08;;;;;;;4.22;3.15;;;7.00;98.50;;;;;;4978545;28;20164;-77
2021/01/22 14:08:34;;;;;;;4.00;2.80;;;6.90;98.20;;;;;;4978216;28;20207;-77
2021/01/22 14:11:01;;;;;;;5.40;2.88;;;6.90;98.00;;;;;;4960998;28;20171;-77
2021/01/22 14:13:26;;;;;;;4.57;3.35;;;6.90;98.30;;;;;;4975489;28;20298;-78
2021/01/22 14:15:52;;;;;;;5.77;3.40;;;6.90;98.40;;;;;;4975610;28;20299;-79
2021/01/22 14:18:18;;;;;;;6.53;2.87;;;6.90;98.90;;;;;;4975168;28;20246;-78
2021/01/22 14:20:43;;;;;;;4.50;3.20;;;6.80;99.70;;;;;;4975716;28;20483;-78
2021/01/22 14:23:09;;;;;;;7.67;4.03;;;6.80;99.40;;;;;;4975354;28;20628;-78
2021/01/22 14:25:35;;;;;;;8.20;5.40;;;6.80;99.20;;;;;;4976147;28;20202;-79
2021/01/22 14:28:00;;;;;;;5.07;4.57;;;6.80;99.90;;;;;;4975781;28;20215;-78
2021/01/22 14:30:27;;;;;;;5.27;3.93;;;6.80;98.80;;;;;;4976143;28;20234;-78
2021/01/22 14:33:08;;;;;;;4.72;2.90;;;6.80;99.10;;;;;;4975132;28;20466;-79
2021/01/22 14:35:34;;;;;;;6.00;2.78;;;6.90;96.80;;;;;;4974506;28;20235;-79
2021/01/22 14:38:01;;;;;;;4.43;2.60;;;6.90;98.30;;;;;;4975424;28;20676;-78
2021/01/22 14:40:27;;;;;;;4.78;3.30;;;6.90;97.60;;;;;;4975722;28;20191;-78
2021/01/22 14:42:52;;;;;;;4.60;2.57;;;6.80;97.60;;;;;;4975315;28;20237;-79
2021/01/22 14:45:18;;;;;;;6.50;3.17;;;6.80;96.40;;;;;;4975249;28;20744;-78
2021/01/22 14:47:44;;;;;;;5.90;3.60;;;6.90;95.10;;;;;;4975109;28;20211;-78
2021/01/22 14:50:10;;;;;;;3.70;3.00;;;7.00;95.70;;;;;;4975478;28;20282;-78
2021/01/22 14:52:36;;;;;;;3.72;2.17;;;6.90;95.80;;;;;;4974950;28;20218;-79
2021/01/22 14:55:04;;;;;;;5.40;1.97;;;6.90;94.70;;;;;;4975283;28;20198;-78
2021/01/22 14:57:30;;;;;;;3.03;2.55;;;6.90;93.20;;;;;;4974394;28;20302;-79
2021/01/22 14:59:56;;;;;;;3.80;2.40;;;6.90;93.90;;;;;;4974223;28;20295;-79
2021/01/22 15:02:22;;;;;;;4.00;2.30;;;6.90;93.80;;;;;;4975151;28;20625;-78
2021/01/22 15:04:47;;;;;;;3.67;2.50;;;6.90;93.90;;;;;;4975242;28;20501;-78
2021/01/22 15:07:13;;;;;;;8.10;2.50;;;6.80;93.60;;;;;;4974414;28;20211;-79
2021/01/22 15:09:39;;;;;;;4.60;3.00;;;6.80;94.00;;;;;;4957716;28;20662;-78
2021/01/22 15:12:06;;;;;;;6.30;2.40;;;6.80;93.20;;;;;;4974804;28;20455;-79
2021/01/22 15:14:32;;;;;;;4.75;2.45;;;6.80;93.70;;;;;;4975073;28;20195;-78
2021/01/22 15:16:58;;;;;;;3.40;2.53;;;6.70;93.90;;;;;;4974596;28;20199;-78
2021/01/22 15:19:27;;;;;;;5.97;2.40;;;6.70;94.00;;;;;;4975005;28;20602;-79
2021/01/22 15:21:53;;;;;;;6.13;2.03;;;6.70;94.50;;;;;;4974281;28;20419;-77
2021/01/22 15:24:19;;;;;;;4.32;2.70;;;6.60;95.30;;;;;;4975698;28;20203;-78
2021/01/22 15:26:45;;;;;;;4.97;2.30;;;6.60;94.20;;;;;;4957818;28;20186;-78
2021/01/22 15:29:15;;;;;;;8.30;2.03;;;6.60;95.00;;;;;;4975438;28;20195;-78
2021/01/22 15:31:42;;;;;;;2.85;2.25;;;6.60;94.60;;;;;;4974958;28;20532;-78
2021/01/22 15:34:09;;;;;;;6.05;3.08;;;6.60;95.10;;;;;;4957598;28;20199;-77
2021/01/22 15:36:34;;;;;;;3.10;2.70;;;6.50;95.00;;;;;;4974916;28;20191;-77
2021/01/22 15:39:00;;;;;;;4.33;3.13;;;6.40;96.40;;;;;;4974433;28;20265;-77
2021/01/22 15:41:26;;;;;;;4.20;2.90;;;6.20;97.30;;;;;;4975073;28;20196;-78
2021/01/22 15:43:52;;;;;;;3.83;2.93;;;6.10;98.00;;;;;;4972322;28;20492;-77
2021/01/22 15:46:17;;;;;;;4.80;3.67;;;6.00;98.10;;;;;;4973746;28;20199;-77
2021/01/22 15:48:43;;;;;;;7.73;3.33;;;5.90;99.10;;;;;;4973562;28;20226;-78
2021/01/22 15:51:09;;;;;;;4.67;2.57;;;5.80;99.70;;;;;;4973791;28;20202;-78
2021/01/22 15:53:34;;;;;;;3.03;2.23;;;5.70;99.80;;;;;;4973014;28;20203;-78
2021/01/22 15:56:00;;;;;;;4.80;2.93;;;5.60;99.90;;;;;;4974060;28;20199;-78
2021/01/22 15:58:26;;;;;;;7.40;3.50;;;5.50;99.90;;;;;;4972393;28;20223;-77
2021/01/22 16:00:51;;;;;;;11.07;2.87;;;5.40;99.90;;;;;;4973209;28;20203;-77
2021/01/22 16:03:17;;;;;;;4.27;3.17;;;5.20;99.90;;;;;;4972326;28;20572;-78
2021/01/22 16:05:43;;;;;;;4.87;3.00;;;5.20;99.90;;;;;;4973222;28;20673;-77
2021/01/22 16:08:08;;;;;;;8.13;2.83;;;5.10;99.90;;;;;;4972262;28;20214;-78
2021/01/22 16:10:34;;;;;;;5.93;3.10;;;5.00;99.90;;;;;;4972403;28;20206;-78
2021/01/22 16:13:00;;;;;;;9.57;2.80;;;4.90;99.90;;;;;;4954748;28;21020;-78
2021/01/22 16:15:26;;;;;;;3.87;2.40;;;4.90;99.90;;;;;;4972576;28;20214;-77
2021/01/22 16:17:52;;;;;;;4.00;2.90;;;4.90;99.90;;;;;;4972396;28;20289;-77
2021/01/22 16:20:18;;;;;;;3.40;2.67;;;4.80;99.90;;;;;;4971854;28;20753;-77
2021/01/22 16:22:43;;;;;;;3.20;2.60;;;4.70;99.90;;;;;;4972029;28;20271;-77
2021/01/22 16:25:09;;;;;;;6.57;2.87;;;4.70;99.90;;;;;;4972130;28;20223;-77
2021/01/22 16:27:35;;;;;;;6.93;3.40;;;4.70;99.90;;;;;;4972405;28;20221;-77
2021/01/22 16:30:01;;;;;;;5.17;3.90;;;4.60;99.90;;;;;;4972732;28;20849;-77
2021/01/22 16:32:27;;;;;;;3.93;3.63;;;4.50;99.90;;;;;;4972422;28;20299;-77
2021/01/22 16:34:53;;;;;;;7.43;4.50;;;4.40;99.90;;;;;;4973670;28;20194;-77
2021/01/22 16:37:19;;;;;;;5.90;5.30;;;4.40;99.90;;;;;;4954331;28;20223;-77
2021/01/22 16:39:57;;;;;;;7.77;5.40;;;4.40;99.90;;;;;;4973123;28;20187;-78
2021/01/22 16:42:24;;;;;;;5.38;4.88;;;4.30;99.90;;;;;;4973325;28;20215;-78
2021/01/22 16:44:50;;;;;;;6.60;5.22;;;4.30;99.90;;;;;;4973130;28;20278;-77
2021/01/22 16:47:16;;;;;;;7.23;4.80;;;4.30;99.90;;;;;;4971955;28;20737;-78
2021/01/22 16:49:41;;;;;;;5.70;4.70;;;4.30;99.90;;;;;;4973303;28;20187;-77
2021/01/22 16:52:07;;;;;;;7.43;5.00;;;4.20;99.90;;;;;;4971874;28;20219;-78
2021/01/22 16:54:33;;;;;;;7.70;4.90;;;4.20;99.90;;;;;;4973070;28;20676;-78
2021/01/22 16:56:58;;;;;;;9.20;4.80;;;4.30;99.90;;;;;;4972168;28;20214;-77